Time;durP1;ratioP1;P1;durP2;ratioP2;P2;SDS_P1;SDS_P2;PMS_P1;PMS_P2;Temp;Humidity;BMP_temperature;BMP_pressure;BME280_temperature;BME280_humidity;BME280_pressure;Samples;Min_cycle;Max_cycle;Signal;HPM_P1;HPM_P2
2023/02/08 00:00:55;;;;;;;8.65;7.40;;;;;;;-5.00;100.00;97640.78;5100421;28;24978;-73
2023/02/08 00:03:26;;;;;;;10.85;7.68;;;;;;;-5.04;100.00;97634.78;5096503;28;24433;-73
2023/02/08 00:05:52;;;;;;;14.75;7.10;;;;;;;-4.95;100.00;97639.22;5093988;28;24439;-73
2023/02/08 00:08:19;;;;;;;11.05;7.82;;;;;;;-5.27;100.00;97638.31;5087539;28;24981;-73
2023/02/08 00:10:45;;;;;;;9.65;7.90;;;;;;;-5.37;100.00;97630.47;5095296;28;24438;-72
2023/02/08 00:13:12;;;;;;;12.15;8.07;;;;;;;-5.25;100.00;97624.91;5090704;28;24438;-73
2023/02/08 00:15:41;;;;;;;10.40;7.88;;;;;;;-5.21;100.00;97624.19;5094290;28;24430;-73
2023/02/08 00:18:08;;;;;;;9.50;7.68;;;;;;;-5.19;100.00;97624.22;5093768;28;24437;-73
2023/02/08 00:20:38;;;;;;;11.75;8.45;;;;;;;-5.19;100.00;97626.75;5098856;28;24822;-72
2023/02/08 00:23:04;;;;;;;9.68;7.60;;;;;;;-5.22;100.00;97627.53;5091687;28;24438;-72
2023/02/08 00:25:31;;;;;;;9.82;7.88;;;;;;;-5.35;100.00;97623.78;5097768;28;24822;-73
2023/02/08 00:27:57;;;;;;;11.00;7.77;;;;;;;-5.30;100.00;97629.00;5095908;28;25006;-72
2023/02/08 00:30:24;;;;;;;11.02;8.20;;;;;;;-5.26;100.00;97620.69;5104868;28;24437;-73
2023/02/08 00:32:50;;;;;;;10.88;7.70;;;;;;;-5.27;100.00;97615.56;5094771;28;24449;-72
2023/02/08 00:35:17;;;;;;;15.73;8.13;;;;;;;-5.16;100.00;97619.25;5102255;28;24456;-72
2023/02/08 00:37:45;;;;;;;10.63;8.45;;;;;;;-5.18;100.00;97620.91;5095124;28;24433;-73
2023/02/08 00:40:12;;;;;;;10.70;8.10;;;;;;;-5.19;100.00;97617.53;5101636;28;24446;-73
2023/02/08 00:42:38;;;;;;;10.32;7.00;;;;;;;-5.34;100.00;97606.97;5102146;28;24512;-73
2023/02/08 00:45:05;;;;;;;10.07;8.10;;;;;;;-5.42;100.00;97603.34;5094564;28;24446;-73
2023/02/08 00:47:32;;;;;;;10.75;7.60;;;;;;;-5.47;100.00;97607.44;5098307;28;24990;-72
2023/02/08 00:49:58;;;;;;;11.27;8.10;;;;;;;-5.40;100.00;97605.13;5096616;28;25016;-73
2023/02/08 00:52:25;;;;;;;12.43;8.07;;;;;;;-5.55;100.00;97597.13;5097777;28;24445;-73
2023/02/08 00:54:53;;;;;;;13.02;8.00;;;;;;;-5.47;100.00;97604.91;5098576;28;24449;-72
2023/02/08 00:57:19;;;;;;;9.32;7.60;;;;;;;-5.57;100.00;97607.97;5099185;28;24441;-73
2023/02/08 00:59:46;;;;;;;11.10;7.90;;;;;;;-5.62;100.00;97611.22;5099678;28;24457;-72
2023/02/08 01:02:12;;;;;;;9.02;7.00;;;;;;;-5.63;100.00;97603.63;5082765;28;24440;-73
2023/02/08 01:04:39;;;;;;;12.40;8.03;;;;;;;-5.63;100.00;97607.00;5103094;28;24469;-72
2023/02/08 01:07:06;;;;;;;11.30;8.10;;;;;;;-5.67;100.00;97615.28;5086904;28;24434;-72
2023/02/08 01:09:33;;;;;;;12.98;8.63;;;;;;;-5.75;100.00;97613.31;5097359;28;24434;-72
2023/02/08 01:12:01;;;;;;;13.40;8.38;;;;;;;-5.82;100.00;97609.78;5096556;28;24440;-72
2023/02/08 01:14:28;;;;;;;12.38;8.60;;;;;;;-5.74;100.00;97615.91;5094744;28;24438;-72
2023/02/08 01:16:54;;;;;;;11.02;8.73;;;;;;;-5.66;100.00;97619.50;5085724;28;24441;-72
2023/02/08 01:19:21;;;;;;;10.63;8.50;;;;;;;-5.74;100.00;97613.38;5094559;28;24543;-72
2023/02/08 01:21:48;;;;;;;12.70;9.68;;;;;;;-5.68;100.00;97616.06;5088094;28;24441;-72
2023/02/08 01:24:15;;;;;;;10.93;8.23;;;;;;;-5.58;100.00;97618.88;5097218;28;25075;-72
2023/02/08 01:26:42;;;;;;;9.13;7.68;;;;;;;-5.66;100.00;97611.94;5099101;28;24434;-72
2023/02/08 01:29:09;;;;;;;16.02;11.65;;;;;;;-5.82;100.00;97609.78;5104732;28;24437;-72
2023/02/08 01:31:37;;;;;;;15.88;10.93;;;;;;;-5.85;100.00;97609.69;5094444;28;24441;-72
2023/02/08 01:34:05;;;;;;;16.17;10.75;;;;;;;-5.72;100.00;97596.59;5101111;28;24441;-72
2023/02/08 01:36:33;;;;;;;17.30;10.10;;;;;;;-5.78;100.00;97598.97;5098731;28;24461;-73
2023/02/08 01:38:59;;;;;;;12.90;9.38;;;;;;;-5.73;100.00;97592.38;5096921;28;24436;-72
2023/02/08 01:41:28;;;;;;;12.80;9.43;;;;;;;-5.73;100.00;97591.53;5097821;28;24453;-72
2023/02/08 01:44:02;;;;;;;18.15;9.80;;;;;;;-5.69;100.00;97591.66;5103843;28;24441;-72
2023/02/08 01:46:30;;;;;;;14.70;10.20;;;;;;;-5.69;100.00;97588.28;5097374;28;24434;-72
2023/02/08 01:49:01;;;;;;;14.35;10.75;;;;;;;-5.68;100.00;97584.94;5097159;28;24799;-72
2023/02/08 01:51:32;;;;;;;18.45;10.18;;;;;;;-5.65;100.00;97590.06;5086251;28;24819;-72
2023/02/08 01:54:02;;;;;;;14.73;10.35;;;;;;;-5.62;100.00;97578.41;5088049;28;24448;-72
2023/02/08 01:56:33;;;;;;;13.35;9.27;;;;;;;-5.58;100.00;97574.31;5092268;28;24441;-72
2023/02/08 01:59:05;;;;;;;11.40;8.82;;;;;;;-5.63;100.00;97579.22;5101062;28;24783;-72
2023/02/08 02:01:33;;;;;;;15.43;9.00;;;;;;;-5.74;100.00;97578.06;5090259;28;24559;-72
2023/02/08 02:04:01;;;;;;;12.88;8.82;;;;;;;-5.84;100.00;97588.66;5091468;28;24445;-72
2023/02/08 02:06:30;;;;;;;11.93;8.13;;;;;;;-5.89;100.00;97583.50;5098381;28;24897;-72
2023/02/08 02:09:07;;;;;;;13.38;8.52;;;;;;;-5.93;100.00;97580.84;5094854;28;24452;-72
2023/02/08 02:11:33;;;;;;;9.88;8.57;;;;;;;-5.90;100.00;97575.84;5102798;28;24429;-72
2023/02/08 02:14:01;;;;;;;12.98;9.45;;;;;;;-6.02;100.00;97568.81;5101983;28;24971;-72
2023/02/08 02:16:27;;;;;;;14.80;9.40;;;;;;;-5.89;100.00;97572.56;5095882;28;24469;-72
2023/02/08 02:18:55;;;;;;;11.30;8.85;;;;;;;-6.31;100.00;97570.44;5095534;28;24438;-72
2023/02/08 02:21:50;;;;;;;15.00;9.20;;;;;;;-6.32;100.00;97557.78;5093919;28;25046;-72
2023/02/08 02:24:51;;;;;;;11.52;8.38;;;;;;;-6.27;100.00;97564.66;5091904;28;24443;-72
2023/02/08 02:27:39;;;;;;;13.48;8.60;;;;;;;-6.25;100.00;97570.63;5095008;28;24796;-72
2023/02/08 02:30:54;;;;;;;9.57;8.40;;;;;;;-6.19;100.00;97560.75;5097440;28;24436;-72
2023/02/08 02:33:41;;;;;;;11.55;8.90;;;;;;;-6.15;100.00;97554.97;5090438;28;24434;-72
2023/02/08 02:36:16;;;;;;;9.85;8.25;;;;;;;-6.04;100.00;97559.47;5098192;28;24445;-72
2023/02/08 02:38:55;;;;;;;9.80;8.45;;;;;;;-6.07;100.00;97560.25;5106442;28;24429;-72
2023/02/08 02:44:25;;;;;;;13.98;9.90;;;;;;;-6.24;100.00;97562.25;5053527;28;24449;-72
2023/02/08 02:47:01;;;;;;;13.18;9.38;;;;;;;-6.39;100.00;97550.00;5098807;28;24443;-72
2023/02/08 02:49:36;;;;;;;19.47;10.30;;;;;;;-6.21;100.00;97559.81;5100858;28;24471;-72
2023/02/08 02:52:08;;;;;;;13.43;8.93;;;;;;;-6.23;100.00;97560.56;5097823;28;24780;-71
2023/02/08 02:54:38;;;;;;;13.45;10.15;;;;;;;-6.18;100.00;97552.38;5092541;28;24449;-72
2023/02/08 02:57:09;;;;;;;12.82;9.05;;;;;;;-6.24;100.00;97558.88;5102297;28;24456;-71
2023/02/08 02:59:38;;;;;;;12.48;9.60;;;;;;;-6.39;100.00;97547.50;5107562;28;24438;-71
2023/02/08 03:02:05;;;;;;;17.00;9.93;;;;;;;-6.28;100.00;97552.88;5097991;28;24441;-71
2023/02/08 03:04:51;;;;;;;14.82;9.82;;;;;;;-6.25;100.00;97560.53;5105132;28;24430;-71
2023/02/08 03:07:33;;;;;;;13.07;9.80;;;;;;;-6.15;100.00;97549.09;5090591;28;24434;-72
2023/02/08 03:10:11;;;;;;;13.27;9.40;;;;;;;-6.21;100.00;97552.25;5098085;28;25017;-72
2023/02/08 03:12:49;;;;;;;10.88;8.85;;;;;;;-6.25;100.00;97555.50;5096360;28;24433;-72
2023/02/08 03:15:28;;;;;;;13.68;8.52;;;;;;;-6.36;100.00;97556.84;5099450;28;24445;-72
2023/02/08 03:18:05;;;;;;;11.80;8.60;;;;;;;-6.54;100.00;97554.56;5096243;28;24429;-72
2023/02/08 03:20:38;;;;;;;10.57;8.55;;;;;;;-6.58;100.00;97558.66;5092449;28;24448;-72
2023/02/08 03:23:11;;;;;;;12.53;8.83;;;;;;;-6.48;100.00;97557.31;5099059;28;24449;-72
2023/02/08 03:25:49;;;;;;;12.57;8.93;;;;;;;-6.55;100.00;97559.56;5094416;28;24437;-72
2023/02/08 03:28:22;;;;;;;11.23;8.40;;;;;;;-6.60;100.00;97562.81;5098025;28;24433;-72
2023/02/08 03:30:57;;;;;;;10.90;7.90;;;;;;;-6.59;100.00;97564.50;5107275;28;24436;-72
2023/02/08 03:33:30;;;;;;;11.68;8.85;;;;;;;-6.78;100.00;97553.78;5092050;28;24437;-73
2023/02/08 03:36:03;;;;;;;12.38;8.40;;;;;;;-6.89;100.00;97559.31;5096105;28;24434;-72
2023/02/08 03:38:34;;;;;;;13.93;9.63;;;;;;;-6.78;100.00;97558.84;5100125;28;24960;-72
2023/02/08 03:41:04;;;;;;;17.52;9.00;;;;;;;-6.75;100.00;97566.47;5095348;28;24995;-72
2023/02/08 03:43:35;;;;;;;11.33;9.57;;;;;;;-6.60;100.00;97560.28;5099935;28;24519;-72
2023/02/08 03:46:07;;;;;;;10.03;8.10;;;;;;;-6.65;100.00;97566.81;5102359;28;24444;-72
2023/02/08 03:48:38;;;;;;;15.95;8.02;;;;;;;-6.71;100.00;97563.25;5095221;28;24439;-72
2023/02/08 03:51:07;;;;;;;11.55;8.75;;;;;;;-6.82;100.00;97558.72;5098941;28;24429;-72
2023/02/08 03:53:39;;;;;;;12.70;9.30;;;;;;;-6.88;100.00;97555.97;5106200;28;24446;-72
2023/02/08 03:56:10;;;;;;;12.10;9.43;;;;;;;-6.82;100.00;97555.34;5101691;28;24586;-72
2023/02/08 03:58:43;;;;;;;13.43;9.23;;;;;;;-6.79;100.00;97557.09;5092500;28;24429;-72
2023/02/08 04:01:16;;;;;;;11.33;8.83;;;;;;;-6.84;100.00;97550.25;5087321;28;25280;-72
2023/02/08 04:03:45;;;;;;;12.43;9.60;;;;;;;-6.88;100.00;97552.63;5093306;28;24999;-72
2023/02/08 04:06:13;;;;;;;15.95;9.38;;;;;;;-6.86;100.00;97543.44;5093878;28;24436;-72
2023/02/08 04:08:39;;;;;;;13.98;9.85;;;;;;;-6.82;100.00;97553.69;5097737;28;24446;-72
2023/02/08 04:11:06;;;;;;;12.52;9.13;;;;;;;-6.73;100.00;97552.25;5095611;28;24449;-72
2023/02/08 04:13:32;;;;;;;10.43;8.35;;;;;;;-6.64;100.00;97550.03;5100702;28;24433;-72
2023/02/08 04:15:59;;;;;;;10.23;7.60;;;;;;;-6.63;100.00;97556.81;5096573;28;25002;-73
2023/02/08 04:18:25;;;;;;;14.20;8.23;;;;;;;-6.77;100.00;97550.47;5089678;28;24528;-72
2023/02/08 04:20:52;;;;;;;16.08;9.15;;;;;;;-6.92;100.00;97549.13;5092317;28;24476;-72
2023/02/08 04:23:19;;;;;;;14.65;8.88;;;;;;;-7.03;100.00;97544.53;5095753;28;24441;-72
2023/02/08 04:25:46;;;;;;;13.27;8.77;;;;;;;-7.02;100.00;97551.28;5092505;28;24430;-72
2023/02/08 04:28:12;;;;;;;16.02;8.27;;;;;;;-6.99;100.00;97549.72;5086600;28;24431;-72
2023/02/08 04:30:39;;;;;;;14.93;8.10;;;;;;;-6.92;100.00;97545.75;5102856;28;24434;-72
2023/02/08 04:33:05;;;;;;;11.73;8.57;;;;;;;-6.91;100.00;97544.94;5100296;28;24441;-72
2023/02/08 04:35:32;;;;;;;11.43;8.73;;;;;;;-6.87;100.00;97550.13;5103338;28;24433;-72
2023/02/08 04:37:59;;;;;;;10.33;8.63;;;;;;;-6.80;100.00;97543.66;5092834;28;24800;-72
2023/02/08 04:40:26;;;;;;;10.98;8.43;;;;;;;-6.93;100.00;97544.06;5098898;28;24826;-72
2023/02/08 04:42:53;;;;;;;11.65;8.38;;;;;;;-6.97;100.00;97544.72;5097990;28;24434;-72
2023/02/08 04:45:19;;;;;;;10.82;8.07;;;;;;;-7.01;100.00;97545.44;5084767;28;24439;-72
2023/02/08 04:47:46;;;;;;;10.45;8.30;;;;;;;-7.12;100.00;97542.53;5101611;28;24468;-72
2023/02/08 04:50:12;;;;;;;11.68;7.70;;;;;;;-7.25;100.00;97538.75;5090178;28;24516;-72
2023/02/08 04:52:39;;;;;;;9.75;7.90;;;;;;;-7.26;100.00;97537.06;5098074;28;24445;-73
2023/02/08 04:55:06;;;;;;;13.30;8.43;;;;;;;-7.22;100.00;97538.88;5092585;28;24438;-73
2023/02/08 04:57:34;;;;;;;10.20;7.55;;;;;;;-7.27;100.00;97542.88;5095700;28;24449;-72
2023/02/08 05:00:01;;;;;;;12.20;8.02;;;;;;;-7.37;100.00;97541.72;5091546;28;24437;-72
2023/02/08 05:02:27;;;;;;;11.20;7.50;;;;;;;-7.50;100.00;97536.19;5084756;28;24500;-73
2023/02/08 05:04:54;;;;;;;11.45;7.72;;;;;;;-7.38;100.00;97517.34;5101628;28;24445;-72
2023/02/08 05:07:20;;;;;;;9.82;7.85;;;;;;;-7.63;100.00;97530.72;5082987;28;24449;-71
2023/02/08 05:09:46;;;;;;;10.73;7.68;;;;;;;-7.47;100.00;97517.03;5095133;28;24430;-73
2023/02/08 05:12:13;;;;;;;9.07;7.25;;;;;;;-7.54;100.00;97512.56;5091705;28;24971;-73
2023/02/08 05:14:41;;;;;;;10.43;7.68;;;;;;;-7.62;100.00;97519.84;5102676;28;24441;-73
2023/02/08 05:17:07;;;;;;;9.05;8.00;;;;;;;-7.46;100.00;97510.31;5095858;28;24435;-73
2023/02/08 05:19:34;;;;;;;11.18;7.88;;;;;;;-7.42;100.00;97523.06;5086312;28;24461;-73
2023/02/08 05:22:00;;;;;;;8.90;6.95;;;;;;;-7.47;100.00;97522.06;5098172;28;24463;-72
2023/02/08 05:24:27;;;;;;;13.23;8.38;;;;;;;-7.49;100.00;97521.16;5095037;28;25019;-73
2023/02/08 05:26:53;;;;;;;10.57;7.57;;;;;;;-7.49;100.00;97525.31;5097301;28;24987;-73
2023/02/08 05:29:19;;;;;;;11.07;8.20;;;;;;;-7.67;100.00;97516.31;5090050;28;25077;-72
2023/02/08 05:31:47;;;;;;;9.88;8.00;;;;;;;-7.74;100.00;97511.03;5096647;28;24988;-72
2023/02/08 05:34:14;;;;;;;10.00;7.88;;;;;;;-7.76;100.00;97510.94;5089067;28;24437;-73
2023/02/08 05:36:40;;;;;;;8.53;7.70;;;;;;;-7.74;100.00;97508.50;5095613;28;24445;-73
2023/02/08 05:39:07;;;;;;;11.98;7.82;;;;;;;-7.79;100.00;97508.31;5097559;28;24441;-74
2023/02/08 05:41:33;;;;;;;8.88;7.45;;;;;;;-7.73;100.00;97515.25;5097491;28;24453;-74
2023/02/08 05:44:00;;;;;;;14.47;8.27;;;;;;;-7.64;100.00;97511.41;5104027;28;24486;-72
2023/02/08 05:46:26;;;;;;;10.43;7.85;;;;;;;-7.65;100.00;97519.72;5102954;28;24492;-76
2023/02/08 05:48:54;;;;;;;10.05;7.70;;;;;;;-7.57;100.00;97520.00;5091282;28;24426;-75
2023/02/08 05:51:21;;;;;;;10.55;7.47;;;;;;;-7.69;100.00;97520.44;5090324;28;24529;-76
2023/02/08 05:53:47;;;;;;;11.50;7.68;;;;;;;-7.77;100.00;97515.94;5101773;28;24439;-75
2023/02/08 05:56:14;;;;;;;12.52;8.10;;;;;;;-7.77;100.00;97516.78;5096040;28;24448;-76
2023/02/08 05:58:40;;;;;;;12.63;8.82;;;;;;;-7.61;100.00;97516.53;5091487;28;24442;-75
2023/02/08 06:01:10;;;;;;;13.27;9.93;;;;;;;-7.57;100.00;97525.88;5090435;28;24461;-75
2023/02/08 06:03:36;;;;;;;13.32;9.35;;;;;;;-7.59;100.00;97530.03;5088932;28;24438;-75
2023/02/08 06:06:04;;;;;;;13.98;9.25;;;;;;;-7.48;100.00;97532.09;5089149;28;24438;-76
2023/02/08 06:08:31;;;;;;;10.82;8.82;;;;;;;-7.53;100.00;97526.00;5098165;28;25006;-76
2023/02/08 06:10:57;;;;;;;13.25;9.13;;;;;;;-7.43;100.00;97535.59;5102391;28;24433;-74
2023/02/08 06:13:24;;;;;;;14.13;10.23;;;;;;;-7.45;100.00;97533.03;5089546;28;24441;-76
2023/02/08 06:15:50;;;;;;;13.52;9.82;;;;;;;-7.43;100.00;97533.94;5097840;28;24812;-75
2023/02/08 06:18:17;;;;;;;23.17;10.10;;;;;;;-7.52;100.00;97530.25;5102198;28;24469;-76
2023/02/08 06:20:44;;;;;;;13.75;10.85;;;;;;;-7.55;100.00;97529.34;5100705;28;24438;-75
2023/02/08 06:23:11;;;;;;;18.85;11.32;;;;;;;-7.65;100.00;97537.34;5087367;28;24463;-74
2023/02/08 06:25:40;;;;;;;12.60;9.35;;;;;;;-7.80;100.00;97532.63;5092234;28;21326;-75
2023/02/08 06:28:09;;;;;;;9.65;8.48;;;;;;;-7.79;100.00;97533.47;5088928;28;24430;-75
2023/02/08 06:30:36;;;;;;;13.60;9.77;;;;;;;-7.57;100.00;97533.44;5090095;28;24495;-74
2023/02/08 06:33:02;;;;;;;11.88;10.18;;;;;;;-7.52;100.00;97536.16;5087899;28;24438;-73
2023/02/08 06:35:29;;;;;;;14.20;9.85;;;;;;;-7.45;100.00;97532.16;5086458;28;24434;-74
2023/02/08 06:37:55;;;;;;;14.52;9.80;;;;;;;-7.39;100.00;97527.34;5083412;28;24441;-75
2023/02/08 06:40:23;;;;;;;12.93;9.13;;;;;;;-7.43;100.00;97535.59;5085846;28;24441;-75
2023/02/08 06:42:49;;;;;;;12.85;9.30;;;;;;;-7.43;100.00;97535.59;5089410;28;24994;-75
2023/02/08 06:45:16;;;;;;;12.40;9.57;;;;;;;-7.29;100.00;97541.13;5091957;28;24623;-74
2023/02/08 06:47:43;;;;;;;10.48;8.68;;;;;;;-7.37;100.00;97541.72;5101728;28;24807;-74
2023/02/08 06:50:10;;;;;;;13.43;9.15;;;;;;;-7.36;100.00;97545.09;5087861;28;24938;-74
2023/02/08 06:52:36;;;;;;;13.50;9.68;;;;;;;-7.63;100.00;97543.31;5101820;28;24800;-75
2023/02/08 06:55:03;;;;;;;16.67;10.52;;;;;;;-7.57;100.00;97548.53;5097514;28;24445;-73
2023/02/08 06:57:31;;;;;;;19.52;12.85;;;;;;;-7.82;100.00;97543.44;5094455;28;24445;-72
2023/02/08 06:59:57;;;;;;;15.98;11.50;;;;;;;-7.64;100.00;97549.16;5100630;28;24434;-74
2023/02/08 07:02:24;;;;;;;14.02;11.30;;;;;;;-7.41;100.00;97547.44;5095801;28;24453;-74
2023/02/08 07:04:50;;;;;;;15.50;11.32;;;;;;;-7.46;100.00;97550.59;5108221;28;24449;-74
2023/02/08 07:07:17;;;;;;;19.73;11.30;;;;;;;-7.38;100.00;97542.53;5093946;28;24442;-75
2023/02/08 07:09:44;;;;;;;17.20;11.90;;;;;;;-7.64;100.00;97544.13;5104705;28;24469;-74
2023/02/08 07:12:11;;;;;;;14.25;9.98;;;;;;;-7.60;100.00;97543.41;5088412;28;24426;-74
2023/02/08 07:14:41;;;;;;;13.68;9.52;;;;;;;-7.34;100.00;97551.00;5096827;28;24438;-75
2023/02/08 07:17:08;;;;;;;17.23;9.13;;;;;;;-7.23;100.00;97551.38;5094067;28;24982;-73
2023/02/08 07:19:35;;;;;;;11.88;9.32;;;;;;;-7.18;100.00;97560.84;5102619;28;24442;-75
2023/02/08 07:22:06;;;;;;;14.70;8.87;;;;;;;-7.18;100.00;97553.28;5100646;28;24452;-73
2023/02/08 07:24:34;;;;;;;13.23;9.32;;;;;;;-7.01;100.00;97560.53;5097378;28;24441;-74
2023/02/08 07:27:00;;;;;;;12.93;9.57;;;;;;;-6.88;100.00;97560.16;5101396;28;24441;-73
2023/02/08 07:29:29;;;;;;;14.10;9.75;;;;;;;-6.76;100.00;97565.63;5092145;28;24425;-73
2023/02/08 07:31:57;;;;;;;12.48;9.60;;;;;;;-6.58;100.00;97561.19;5100493;28;24434;-73
2023/02/08 07:34:23;;;;;;;11.93;9.13;;;;;;;-6.49;100.00;97554.72;5093144;28;24448;-74
2023/02/08 07:36:50;;;;;;;16.25;10.88;;;;;;;-6.44;100.00;97549.03;5098984;28;24533;-73
2023/02/08 07:39:16;;;;;;;12.02;8.85;;;;;;;-6.36;100.00;97559.34;5102030;28;24449;-73
2023/02/08 07:41:43;;;;;;;11.65;9.25;;;;;;;-6.09;100.00;97560.19;5096246;28;24442;-73
2023/02/08 07:44:09;;;;;;;13.60;9.45;;;;;;;-5.78;100.00;97558.59;5099634;28;24448;-73
2023/02/08 07:46:36;;;;;;;11.35;8.98;;;;;;;-5.38;100.00;97560.59;5091909;28;24449;-74
2023/02/08 07:49:04;;;;;;;14.98;9.65;;;;;;;-4.98;100.00;97555.75;5096276;28;25006;-75
2023/02/08 07:51:30;;;;;;;13.77;9.82;;;;;;;-4.62;100.00;97563.44;5089552;28;24971;-71
2023/02/08 07:53:57;;;;;;;18.48;9.23;;;;;;;-4.40;100.00;97557.22;5091692;28;24441;-74
2023/02/08 07:56:23;;;;;;;12.82;9.45;;;;;;;-4.24;100.00;97556.75;5091562;28;24430;-74
2023/02/08 07:58:50;;;;;;;16.33;11.13;;;;;;;-4.08;100.00;97547.00;5096812;28;24473;-72
2023/02/08 08:01:16;;;;;;;16.35;12.05;;;;;;;-3.87;100.00;97549.16;5092616;28;24991;-73
2023/02/08 08:03:43;;;;;;;18.10;12.07;;;;;;;-3.66;100.00;97547.09;5095777;28;24823;-73
2023/02/08 08:06:11;;;;;;;16.10;11.98;;;;;;;-3.48;100.00;97552.56;5097720;28;24483;-73
2023/02/08 08:08:38;;;;;;;21.38;12.98;;;;;;;-3.77;100.00;97548.56;5103633;28;24429;-74
2023/02/08 08:11:05;;;;;;;17.83;11.90;;;;;;;-3.48;100.00;97547.47;5092712;28;24438;-74
2023/02/08 08:13:31;;;;;;;21.52;12.93;;;;;;;-3.48;100.00;97549.16;5093978;28;24441;-75
2023/02/08 08:15:58;;;;;;;18.65;12.63;;;;;;;-3.53;100.00;97548.19;5093732;28;24446;-74
2023/02/08 08:18:24;;;;;;;21.02;13.00;;;;;;;-3.20;100.00;97542.94;5098291;28;24438;-75
2023/02/08 08:20:51;;;;;;;16.63;11.70;;;;;;;-3.03;100.00;97534.00;5085435;28;24535;-74
2023/02/08 08:23:19;;;;;;;15.93;12.60;;;;;;;-2.65;100.00;97546.50;5100207;28;24449;-75
2023/02/08 08:25:45;;;;;;;16.58;11.40;;;;;;;-2.41;99.40;97535.94;5089633;28;24435;-72
2023/02/08 08:28:12;;;;;;;15.82;11.40;;;;;;;-2.20;97.81;97543.00;5087345;28;24445;-74
2023/02/08 08:30:42;;;;;;;15.73;11.10;;;;;;;-1.95;100.00;97542.56;5095749;28;24441;-74
2023/02/08 08:33:09;;;;;;;13.93;10.23;;;;;;;-1.68;94.79;97545.47;5099081;28;24441;-74
2023/02/08 08:35:35;;;;;;;13.82;10.45;;;;;;;-1.42;91.38;97543.25;5107410;28;24446;-74
2023/02/08 08:38:01;;;;;;;13.68;10.55;;;;;;;-1.19;88.76;97541.00;5096187;28;24436;-75
2023/02/08 08:40:29;;;;;;;13.77;10.55;;;;;;;-1.08;84.86;97536.88;5098771;28;24440;-74
2023/02/08 08:42:57;;;;;;;13.77;10.48;;;;;;;-0.87;82.22;97543.91;5094110;28;24446;-74
2023/02/08 08:45:23;;;;;;;14.73;10.45;;;;;;;-0.74;77.73;97545.75;5096685;28;24887;-74
2023/02/08 08:47:50;;;;;;;13.87;9.93;;;;;;;-0.64;74.36;97539.88;5103128;28;24485;-75
2023/02/08 08:50:17;;;;;;;15.13;10.20;;;;;;;-0.64;70.91;97533.94;5099285;28;24449;-75
2023/02/08 08:52:43;;;;;;;19.15;10.85;;;;;;;-0.57;66.42;97528.06;5104977;28;24437;-75
2023/02/08 08:55:09;;;;;;;13.02;10.40;;;;;;;-0.58;70.44;97539.09;5087813;28;24984;-75
2023/02/08 08:57:37;;;;;;;14.02;10.45;;;;;;;-0.42;68.30;97535.00;5095619;28;24441;-75
2023/02/08 09:00:04;;;;;;;15.68;10.65;;;;;;;-0.24;71.67;97537.69;5092285;28;24438;-75
2023/02/08 09:02:31;;;;;;;18.67;10.95;;;;;;;-0.15;67.57;97534.34;5098034;28;24453;-73
2023/02/08 09:04:59;;;;;;;14.77;10.95;;;;;;;-0.09;68.71;97531.88;5102705;28;24982;-73
2023/02/08 09:07:25;;;;;;;17.65;12.88;;;;;;;0.08;73.33;97522.66;5087612;28;24439;-70
2023/02/08 09:09:52;;;;;;;23.48;12.23;;;;;;;-0.33;68.55;97533.41;5102930;28;24808;-76
2023/02/08 09:12:18;;;;;;;15.23;10.98;;;;;;;-0.03;70.20;97525.13;5091159;28;24427;-74
2023/02/08 09:14:46;;;;;;;18.85;12.00;;;;;;;-0.27;67.53;97533.41;5104026;28;24809;-73
2023/02/08 09:17:12;;;;;;;17.48;10.90;;;;;;;-0.42;68.89;97524.81;5096598;28;24438;-74
2023/02/08 09:19:39;;;;;;;16.33;10.43;;;;;;;-0.32;70.41;97516.41;5085674;28;24439;-74
2023/02/08 09:22:06;;;;;;;14.88;10.95;;;;;;;0.11;72.17;97527.78;5097502;28;24453;-74
2023/02/08 09:24:32;;;;;;;15.63;10.13;;;;;;;0.39;68.23;97525.38;5085496;28;25312;-75
2023/02/08 09:26:59;;;;;;;16.25;10.73;;;;;;;0.65;66.70;97523.78;5087584;28;24437;-74
2023/02/08 09:29:28;;;;;;;15.30;9.97;;;;;;;0.83;63.09;97527.28;5092445;28;24468;-73
2023/02/08 09:31:56;;;;;;;16.52;9.20;;;;;;;0.82;64.90;97520.47;5105495;28;24498;-76
2023/02/08 09:34:22;;;;;;;11.38;9.35;;;;;;;0.93;65.01;97513.72;5090276;28;24434;-73
2023/02/08 09:36:49;;;;;;;12.60;9.27;;;;;;;0.98;66.58;97521.38;5097990;28;24991;-74
2023/02/08 09:39:17;;;;;;;13.25;9.10;;;;;;;1.00;59.47;97517.09;5097020;28;24990;-73
2023/02/08 09:42:01;;;;;;;13.67;8.53;;;;;;;1.16;57.48;97518.88;5099727;28;24557;-72
2023/02/08 09:44:33;;;;;;;11.98;8.80;;;;;;;1.08;61.08;97513.75;5094728;28;25022;-74
2023/02/08 09:47:06;;;;;;;12.57;9.55;;;;;;;1.02;57.82;97510.31;5098453;28;24994;-75
2023/02/08 09:49:40;;;;;;;16.02;10.10;;;;;;;1.33;58.88;97513.78;5091776;28;24445;-72
2023/02/08 09:52:13;;;;;;;12.15;9.30;;;;;;;1.19;57.17;97509.53;5087940;28;24436;-72
2023/02/08 09:54:43;;;;;;;17.08;9.55;;;;;;;1.10;59.13;97508.63;5101647;28;24438;-71
2023/02/08 09:57:15;;;;;;;11.63;8.35;;;;;;;1.14;55.41;97508.63;5094818;28;25003;-73
2023/02/08 09:59:52;;;;;;;14.85;7.82;;;;;;;1.04;54.96;97506.06;5092941;28;24422;-74
2023/02/08 10:02:25;;;;;;;9.82;7.70;;;;;;;0.87;56.32;97513.69;5088461;28;24449;-73
2023/02/08 10:05:01;;;;;;;10.43;7.75;;;;;;;1.01;58.70;97512.03;5098103;28;24997;-74
2023/02/08 10:07:29;;;;;;;11.93;8.05;;;;;;;0.96;54.09;97509.47;5081551;28;24442;-74
2023/02/08 10:09:58;;;;;;;13.27;8.10;;;;;;;1.23;58.22;97499.31;5105098;28;24438;-72
2023/02/08 10:12:37;;;;;;;12.23;7.20;;;;;;;1.39;55.40;97507.00;5089637;28;24868;-73
2023/02/08 10:15:15;;;;;;;10.75;7.45;;;;;;;1.62;57.93;97507.00;5093048;28;24437;-74
2023/02/08 10:18:05;;;;;;;13.10;8.00;;;;;;;1.65;53.80;97507.00;5102001;28;24484;-74
2023/02/08 10:20:50;;;;;;;11.57;7.75;;;;;;;1.75;53.21;97514.69;5089058;28;24437;-73
2023/02/08 10:23:27;;;;;;;9.73;7.03;;;;;;;1.92;55.84;97500.16;5100467;28;24570;-74
2023/02/08 10:26:10;;;;;;;9.45;7.47;;;;;;;1.86;50.16;97503.59;5097759;28;24429;-73
2023/02/08 10:28:54;;;;;;;10.30;7.35;;;;;;;2.03;56.17;97502.72;5097592;28;24500;-73
2023/02/08 10:31:35;;;;;;;9.23;6.95;;;;;;;1.92;48.73;97506.13;5104172;28;24438;-74
2023/02/08 10:34:09;;;;;;;11.75;7.60;;;;;;;1.79;50.48;97499.34;5086948;28;24987;-74
2023/02/08 10:36:40;;;;;;;9.52;7.35;;;;;;;1.73;51.96;97493.38;5096445;28;24530;-73
2023/02/08 10:39:15;;;;;;;16.93;7.63;;;;;;;1.79;55.10;97493.38;5106896;28;24456;-71
2023/02/08 10:41:43;;;;;;;10.95;7.22;;;;;;;2.00;53.56;97487.38;5100284;28;24437;-73
2023/02/08 10:44:24;;;;;;;11.40;7.40;;;;;;;2.10;50.50;97489.06;5099318;28;24461;-73
2023/02/08 10:46:56;;;;;;;13.23;7.65;;;;;;;2.35;53.05;97483.06;5084647;28;25012;-72
2023/02/08 10:49:33;;;;;;;12.35;8.25;;;;;;;2.33;51.18;97484.75;5102273;28;24429;-72
2023/02/08 10:52:01;;;;;;;10.48;6.95;;;;;;;2.30;52.66;97478.78;5094093;28;24452;-72
2023/02/08 10:54:27;;;;;;;8.70;7.03;;;;;;;2.04;52.87;97479.72;5095876;28;24439;-73
2023/02/08 10:56:56;;;;;;;11.75;7.88;;;;;;;1.91;52.99;97488.25;5096492;28;24812;-72
2023/02/08 10:59:28;;;;;;;12.90;7.97;;;;;;;2.07;52.46;97478.84;5101512;28;24465;-72
2023/02/08 11:01:56;;;;;;;12.90;7.80;;;;;;;2.03;50.13;97477.16;5091215;28;24437;-73
2023/02/08 11:04:24;;;;;;;11.90;8.27;;;;;;;1.87;51.85;97476.34;5096578;28;24450;-73
2023/02/08 11:06:53;;;;;;;16.05;8.00;;;;;;;1.91;53.13;97472.94;5091752;28;24433;-73
2023/02/08 11:09:25;;;;;;;9.77;7.18;;;;;;;2.03;52.92;97479.72;5105047;28;24442;-73
2023/02/08 11:11:53;;;;;;;19.30;8.00;;;;;;;2.02;53.11;97467.81;5096241;28;24433;-73
2023/02/08 11:14:25;;;;;;;13.37;8.40;;;;;;;1.98;53.63;97463.56;5098800;28;24434;-73
2023/02/08 11:16:53;;;;;;;10.88;7.60;;;;;;;2.06;53.61;97457.56;5098265;28;24444;-73
2023/02/08 11:19:28;;;;;;;10.35;7.95;;;;;;;2.09;56.19;97457.56;5101651;28;24437;-73
2023/02/08 11:21:55;;;;;;;9.93;8.02;;;;;;;2.08;53.92;97455.03;5109416;28;24437;-74
2023/02/08 11:24:27;;;;;;;15.95;8.45;;;;;;;1.91;54.08;97460.16;5095511;28;24465;-73
2023/02/08 11:26:55;;;;;;;15.27;7.53;;;;;;;1.70;54.23;97459.31;5099164;28;25001;-73
2023/02/08 11:29:23;;;;;;;8.75;7.53;;;;;;;1.78;55.26;97463.56;5096767;28;24610;-73
2023/02/08 11:32:00;;;;;;;11.45;7.88;;;;;;;1.90;54.90;97451.63;5097352;28;24439;-73